sensor_id;sensor_type;location;lat;lon;timestamp;P1;durP1;ratioP1;P2;durP2;ratioP2
4049;SDS011;2039;50.894;6.888;2022-11-21T00:04:11;73.30;;;11.23;;
4049;SDS011;2039;50.894;6.888;2022-11-21T00:06:57;74.13;;;13.55;;
4049;SDS011;2039;50.894;6.888;2022-11-21T00:09:25;78.80;;;10.98;;
4049;SDS011;2039;50.894;6.888;2022-11-21T00:12:06;78.38;;;10.43;;
4049;SDS011;2039;50.894;6.888;2022-11-21T00:14:35;79.75;;;10.45;;
4049;SDS011;2039;50.894;6.888;2022-11-21T00:17:01;78.37;;;13.30;;
4049;SDS011;2039;50.894;6.888;2022-11-21T00:19:26;81.03;;;12.50;;
4049;SDS011;2039;50.894;6.888;2022-11-21T00:21:55;95.93;;;45.70;;
4049;SDS011;2039;50.894;6.888;2022-11-21T00:24:21;76.32;;;12.50;;
4049;SDS011;2039;50.894;6.888;2022-11-21T00:26:52;74.28;;;10.07;;
4049;SDS011;2039;50.894;6.888;2022-11-21T00:29:18;76.77;;;11.00;;
4049;SDS011;2039;50.894;6.888;2022-11-21T00:31:49;85.65;;;12.93;;
4049;SDS011;2039;50.894;6.888;2022-11-21T00:34:21;72.68;;;10.35;;
4049;SDS011;2039;50.894;6.888;2022-11-21T00:36:53;77.95;;;10.75;;
4049;SDS011;2039;50.894;6.888;2022-11-21T00:42:50;74.25;;;9.73;;
4049;SDS011;2039;50.894;6.888;2022-11-21T00:45:15;78.27;;;10.60;;
4049;SDS011;2039;50.894;6.888;2022-11-21T00:47:47;79.28;;;9.95;;
4049;SDS011;2039;50.894;6.888;2022-11-21T00:50:13;73.95;;;9.55;;
4049;SDS011;2039;50.894;6.888;2022-11-21T00:52:38;72.17;;;10.20;;
4049;SDS011;2039;50.894;6.888;2022-11-21T00:55:10;71.38;;;10.00;;
4049;SDS011;2039;50.894;6.888;2022-11-21T00:57:36;80.75;;;10.10;;
4049;SDS011;2039;50.894;6.888;2022-11-21T01:00:07;80.03;;;11.88;;
4049;SDS011;2039;50.894;6.888;2022-11-21T01:02:42;81.38;;;11.38;;
4049;SDS011;2039;50.894;6.888;2022-11-21T01:05:08;75.30;;;10.38;;
4049;SDS011;2039;50.894;6.888;2022-11-21T01:07:34;79.73;;;11.13;;
4049;SDS011;2039;50.894;6.888;2022-11-21T01:10:00;76.63;;;11.07;;
4049;SDS011;2039;50.894;6.888;2022-11-21T01:12:26;71.90;;;10.47;;
4049;SDS011;2039;50.894;6.888;2022-11-21T01:14:55;80.90;;;12.63;;
4049;SDS011;2039;50.894;6.888;2022-11-21T01:17:23;69.93;;;9.30;;
4049;SDS011;2039;50.894;6.888;2022-11-21T01:19:48;73.27;;;9.90;;
4049;SDS011;2039;50.894;6.888;2022-11-21T01:22:20;80.47;;;11.07;;
4049;SDS011;2039;50.894;6.888;2022-11-21T01:24:46;78.65;;;10.05;;
4049;SDS011;2039;50.894;6.888;2022-11-21T01:27:12;68.57;;;10.13;;
4049;SDS011;2039;50.894;6.888;2022-11-21T01:29:37;76.80;;;9.67;;
4049;SDS011;2039;50.894;6.888;2022-11-21T01:32:09;78.47;;;8.90;;
4049;SDS011;2039;50.894;6.888;2022-11-21T01:34:38;74.20;;;10.57;;
4049;SDS011;2039;50.894;6.888;2022-11-21T01:37:03;73.55;;;10.27;;
4049;SDS011;2039;50.894;6.888;2022-11-21T01:39:35;75.77;;;10.87;;
4049;SDS011;2039;50.894;6.888;2022-11-21T01:42:01;81.45;;;9.70;;
4049;SDS011;2039;50.894;6.888;2022-11-21T01:44:44;74.33;;;10.70;;
4049;SDS011;2039;50.894;6.888;2022-11-21T01:47:12;73.60;;;10.20;;
4049;SDS011;2039;50.894;6.888;2022-11-21T01:49:37;71.53;;;10.03;;
4049;SDS011;2039;50.894;6.888;2022-11-21T01:55:00;76.03;;;10.20;;
4049;SDS011;2039;50.894;6.888;2022-11-21T01:57:34;96.30;;;11.55;;
4049;SDS011;2039;50.894;6.888;2022-11-21T02:00:11;77.72;;;9.82;;
4049;SDS011;2039;50.894;6.888;2022-11-21T02:02:46;78.05;;;9.65;;
4049;SDS011;2039;50.894;6.888;2022-11-21T02:05:21;73.25;;;9.93;;
4049;SDS011;2039;50.894;6.888;2022-11-21T02:08:18;77.50;;;10.18;;
4049;SDS011;2039;50.894;6.888;2022-11-21T02:13:35;71.68;;;9.20;;
4049;SDS011;2039;50.894;6.888;2022-11-21T02:16:03;75.30;;;8.47;;
4049;SDS011;2039;50.894;6.888;2022-11-21T02:18:44;80.22;;;10.25;;
4049;SDS011;2039;50.894;6.888;2022-11-21T02:24:03;71.68;;;8.73;;
4049;SDS011;2039;50.894;6.888;2022-11-21T02:26:39;78.25;;;8.55;;
4049;SDS011;2039;50.894;6.888;2022-11-21T02:29:05;75.22;;;7.70;;
4049;SDS011;2039;50.894;6.888;2022-11-21T02:31:31;69.70;;;6.82;;
4049;SDS011;2039;50.894;6.888;2022-11-21T02:33:57;73.33;;;7.00;;
4049;SDS011;2039;50.894;6.888;2022-11-21T02:36:30;77.30;;;7.90;;
4049;SDS011;2039;50.894;6.888;2022-11-21T02:39:07;71.63;;;7.82;;
4049;SDS011;2039;50.894;6.888;2022-11-21T02:41:40;73.97;;;8.15;;
4049;SDS011;2039;50.894;6.888;2022-11-21T02:44:21;81.75;;;8.68;;
4049;SDS011;2039;50.894;6.888;2022-11-21T02:46:51;74.63;;;9.13;;
4049;SDS011;2039;50.894;6.888;2022-11-21T02:49:29;68.03;;;7.80;;
4049;SDS011;2039;50.894;6.888;2022-11-21T02:52:02;71.88;;;8.00;;
4049;SDS011;2039;50.894;6.888;2022-11-21T02:54:31;74.00;;;8.40;;
4049;SDS011;2039;50.894;6.888;2022-11-21T02:56:56;67.88;;;7.53;;
4049;SDS011;2039;50.894;6.888;2022-11-21T02:59:22;68.10;;;6.67;;
4049;SDS011;2039;50.894;6.888;2022-11-21T03:01:48;73.10;;;7.83;;
4049;SDS011;2039;50.894;6.888;2022-11-21T03:04:16;69.93;;;7.63;;
4049;SDS011;2039;50.894;6.888;2022-11-21T03:06:42;73.15;;;8.57;;
4049;SDS011;2039;50.894;6.888;2022-11-21T03:09:07;70.23;;;7.83;;
4049;SDS011;2039;50.894;6.888;2022-11-21T03:11:33;70.77;;;7.33;;
4049;SDS011;2039;50.894;6.888;2022-11-21T03:13:59;72.70;;;6.87;;
4049;SDS011;2039;50.894;6.888;2022-11-21T03:16:24;71.53;;;9.30;;
4049;SDS011;2039;50.894;6.888;2022-11-21T03:18:51;72.65;;;7.68;;
4049;SDS011;2039;50.894;6.888;2022-11-21T03:21:16;68.77;;;7.23;;
4049;SDS011;2039;50.894;6.888;2022-11-21T03:23:42;66.80;;;7.97;;
4049;SDS011;2039;50.894;6.888;2022-11-21T03:26:08;72.10;;;7.23;;
4049;SDS011;2039;50.894;6.888;2022-11-21T03:28:33;73.60;;;7.90;;
4049;SDS011;2039;50.894;6.888;2022-11-21T03:30:59;79.23;;;8.20;;
4049;SDS011;2039;50.894;6.888;2022-11-21T03:33:35;70.87;;;8.63;;
4049;SDS011;2039;50.894;6.888;2022-11-21T03:36:07;68.95;;;11.18;;
4049;SDS011;2039;50.894;6.888;2022-11-21T03:38:33;71.13;;;8.70;;
4049;SDS011;2039;50.894;6.888;2022-11-21T03:41:04;74.07;;;9.77;;
4049;SDS011;2039;50.894;6.888;2022-11-21T03:43:52;72.03;;;8.57;;
4049;SDS011;2039;50.894;6.888;2022-11-21T03:46:17;67.97;;;8.27;;
4049;SDS011;2039;50.894;6.888;2022-11-21T03:48:46;67.60;;;8.18;;
4049;SDS011;2039;50.894;6.888;2022-11-21T03:51:12;68.93;;;10.17;;
4049;SDS011;2039;50.894;6.888;2022-11-21T03:53:38;72.97;;;8.80;;
4049;SDS011;2039;50.894;6.888;2022-11-21T03:56:03;70.03;;;9.57;;
4049;SDS011;2039;50.894;6.888;2022-11-21T03:58:29;68.37;;;7.50;;
4049;SDS011;2039;50.894;6.888;2022-11-21T04:00:57;69.32;;;9.00;;
4049;SDS011;2039;50.894;6.888;2022-11-21T04:03:30;69.15;;;8.77;;
4049;SDS011;2039;50.894;6.888;2022-11-21T04:05:56;69.10;;;8.45;;
4049;SDS011;2039;50.894;6.888;2022-11-21T04:08:21;74.73;;;7.70;;
4049;SDS011;2039;50.894;6.888;2022-11-21T04:10:51;73.53;;;8.70;;
4049;SDS011;2039;50.894;6.888;2022-11-21T04:13:18;75.63;;;9.25;;
4049;SDS011;2039;50.894;6.888;2022-11-21T04:15:44;72.80;;;9.70;;
4049;SDS011;2039;50.894;6.888;2022-11-21T04:18:10;70.57;;;9.20;;
4049;SDS011;2039;50.894;6.888;2022-11-21T04:20:39;71.72;;;8.85;;
4049;SDS011;2039;50.894;6.888;2022-11-21T04:23:08;74.80;;;8.17;;
4049;SDS011;2039;50.894;6.888;2022-11-21T04:25:34;69.82;;;8.95;;
4049;SDS011;2039;50.894;6.888;2022-11-21T04:28:00;69.60;;;8.47;;
4049;SDS011;2039;50.894;6.888;2022-11-21T04:30:30;70.65;;;8.95;;
4049;SDS011;2039;50.894;6.888;2022-11-21T04:32:59;75.15;;;9.85;;
4049;SDS011;2039;50.894;6.888;2022-11-21T04:35:27;75.50;;;9.00;;
4049;SDS011;2039;50.894;6.888;2022-11-21T04:37:52;73.70;;;8.50;;
4049;SDS011;2039;50.894;6.888;2022-11-21T04:40:18;70.37;;;8.97;;
4049;SDS011;2039;50.894;6.888;2022-11-21T04:42:44;68.57;;;8.67;;
4049;SDS011;2039;50.894;6.888;2022-11-21T04:45:11;72.82;;;10.15;;
4049;SDS011;2039;50.894;6.888;2022-11-21T04:47:39;74.15;;;10.25;;
4049;SDS011;2039;50.894;6.888;2022-11-21T04:50:06;71.70;;;9.85;;
4049;SDS011;2039;50.894;6.888;2022-11-21T04:52:33;73.10;;;11.32;;
4049;SDS011;2039;50.894;6.888;2022-11-21T04:54:59;70.60;;;10.20;;
4049;SDS011;2039;50.894;6.888;2022-11-21T04:57:26;70.33;;;10.53;;
4049;SDS011;2039;50.894;6.888;2022-11-21T04:59:52;71.03;;;9.80;;
4049;SDS011;2039;50.894;6.888;2022-11-21T05:02:20;70.93;;;8.85;;
4049;SDS011;2039;50.894;6.888;2022-11-21T05:04:45;68.97;;;9.83;;
4049;SDS011;2039;50.894;6.888;2022-11-21T05:07:11;68.50;;;10.03;;
4049;SDS011;2039;50.894;6.888;2022-11-21T05:09:37;73.18;;;10.27;;
4049;SDS011;2039;50.894;6.888;2022-11-21T05:12:03;73.80;;;11.60;;
4049;SDS011;2039;50.894;6.888;2022-11-21T05:14:47;71.95;;;9.73;;
4049;SDS011;2039;50.894;6.888;2022-11-21T05:17:13;80.40;;;10.55;;
4049;SDS011;2039;50.894;6.888;2022-11-21T05:19:39;76.60;;;11.57;;
4049;SDS011;2039;50.894;6.888;2022-11-21T05:22:05;73.10;;;10.20;;
4049;SDS011;2039;50.894;6.888;2022-11-21T05:24:30;72.20;;;11.00;;
4049;SDS011;2039;50.894;6.888;2022-11-21T05:26:56;77.20;;;11.00;;
4049;SDS011;2039;50.894;6.888;2022-11-21T05:29:22;75.20;;;11.20;;
4049;SDS011;2039;50.894;6.888;2022-11-21T05:31:47;76.03;;;12.03;;
4049;SDS011;2039;50.894;6.888;2022-11-21T05:34:13;75.47;;;9.43;;
4049;SDS011;2039;50.894;6.888;2022-11-21T05:36:39;74.23;;;11.47;;
4049;SDS011;2039;50.894;6.888;2022-11-21T05:39:05;72.47;;;10.30;;
4049;SDS011;2039;50.894;6.888;2022-11-21T05:41:30;77.10;;;11.43;;
4049;SDS011;2039;50.894;6.888;2022-11-21T05:46:27;75.00;;;12.50;;
4049;SDS011;2039;50.894;6.888;2022-11-21T05:48:53;73.40;;;11.73;;
4049;SDS011;2039;50.894;6.888;2022-11-21T05:51:19;74.90;;;11.48;;
4049;SDS011;2039;50.894;6.888;2022-11-21T05:53:46;69.65;;;10.90;;
4049;SDS011;2039;50.894;6.888;2022-11-21T05:56:16;74.82;;;12.63;;
4049;SDS011;2039;50.894;6.888;2022-11-21T05:58:43;74.68;;;9.75;;
4049;SDS011;2039;50.894;6.888;2022-11-21T06:01:10;72.57;;;10.45;;
4049;SDS011;2039;50.894;6.888;2022-11-21T06:03:38;73.18;;;11.50;;
4049;SDS011;2039;50.894;6.888;2022-11-21T06:08:35;71.88;;;10.38;;
4049;SDS011;2039;50.894;6.888;2022-11-21T06:11:03;72.85;;;11.60;;
4049;SDS011;2039;50.894;6.888;2022-11-21T06:13:30;73.57;;;12.35;;
4049;SDS011;2039;50.894;6.888;2022-11-21T06:18:40;78.22;;;12.23;;
4049;SDS011;2039;50.894;6.888;2022-11-21T06:21:19;75.15;;;11.65;;
4049;SDS011;2039;50.894;6.888;2022-11-21T06:23:48;70.40;;;10.32;;
4049;SDS011;2039;50.894;6.888;2022-11-21T06:26:16;69.63;;;10.57;;
4049;SDS011;2039;50.894;6.888;2022-11-21T06:28:44;75.30;;;11.40;;
4049;SDS011;2039;50.894;6.888;2022-11-21T06:31:11;78.07;;;11.73;;
4049;SDS011;2039;50.894;6.888;2022-11-21T06:33:39;71.97;;;11.48;;
4049;SDS011;2039;50.894;6.888;2022-11-21T06:36:10;78.72;;;11.90;;
4049;SDS011;2039;50.894;6.888;2022-11-21T06:38:38;77.90;;;11.38;;
4049;SDS011;2039;50.894;6.888;2022-11-21T06:41:14;70.68;;;10.63;;
4049;SDS011;2039;50.894;6.888;2022-11-21T06:43:40;78.15;;;11.45;;
4049;SDS011;2039;50.894;6.888;2022-11-21T06:46:07;75.65;;;11.15;;
4049;SDS011;2039;50.894;6.888;2022-11-21T06:48:33;74.07;;;11.05;;
4049;SDS011;2039;50.894;6.888;2022-11-21T06:51:03;71.82;;;9.82;;
4049;SDS011;2039;50.894;6.888;2022-11-21T06:53:42;73.00;;;10.18;;
4049;SDS011;2039;50.894;6.888;2022-11-21T06:56:08;69.43;;;8.70;;
4049;SDS011;2039;50.894;6.888;2022-11-21T06:58:34;73.37;;;10.40;;
4049;SDS011;2039;50.894;6.888;2022-11-21T07:01:04;72.50;;;10.40;;
4049;SDS011;2039;50.894;6.888;2022-11-21T07:03:30;68.10;;;9.95;;
4049;SDS011;2039;50.894;6.888;2022-11-21T07:05:58;71.13;;;8.98;;
4049;SDS011;2039;50.894;6.888;2022-11-21T07:08:26;70.85;;;9.15;;
4049;SDS011;2039;50.894;6.888;2022-11-21T07:10:53;71.13;;;9.88;;
4049;SDS011;2039;50.894;6.888;2022-11-21T07:13:18;73.07;;;10.63;;
4049;SDS011;2039;50.894;6.888;2022-11-21T07:15:48;73.75;;;11.43;;
4049;SDS011;2039;50.894;6.888;2022-11-21T07:18:18;73.78;;;10.98;;
4049;SDS011;2039;50.894;6.888;2022-11-21T07:20:45;74.72;;;9.85;;
4049;SDS011;2039;50.894;6.888;2022-11-21T07:23:11;71.90;;;9.80;;
4049;SDS011;2039;50.894;6.888;2022-11-21T07:25:37;74.85;;;10.82;;
4049;SDS011;2039;50.894;6.888;2022-11-21T07:28:03;78.40;;;11.15;;
4049;SDS011;2039;50.894;6.888;2022-11-21T07:30:31;72.78;;;11.43;;
4049;SDS011;2039;50.894;6.888;2022-11-21T07:32:57;72.00;;;11.13;;
4049;SDS011;2039;50.894;6.888;2022-11-21T07:35:24;68.97;;;9.25;;
4049;SDS011;2039;50.894;6.888;2022-11-21T07:37:50;71.85;;;10.85;;
4049;SDS011;2039;50.894;6.888;2022-11-21T07:40:17;70.80;;;9.60;;
4049;SDS011;2039;50.894;6.888;2022-11-21T07:42:43;80.22;;;11.00;;
4049;SDS011;2039;50.894;6.888;2022-11-21T07:45:09;72.57;;;10.77;;
4049;SDS011;2039;50.894;6.888;2022-11-21T07:47:35;71.25;;;9.88;;
4049;SDS011;2039;50.894;6.888;2022-11-21T07:50:01;68.80;;;10.27;;
4049;SDS011;2039;50.894;6.888;2022-11-21T07:52:27;69.40;;;11.57;;
4049;SDS011;2039;50.894;6.888;2022-11-21T07:54:54;72.40;;;11.30;;
4049;SDS011;2039;50.894;6.888;2022-11-21T07:57:20;76.88;;;10.63;;
4049;SDS011;2039;50.894;6.888;2022-11-21T07:59:46;72.00;;;13.10;;
4049;SDS011;2039;50.894;6.888;2022-11-21T08:02:16;70.37;;;11.03;;
4049;SDS011;2039;50.894;6.888;2022-11-21T08:04:47;68.97;;;10.55;;
4049;SDS011;2039;50.894;6.888;2022-11-21T08:07:17;77.63;;;9.20;;
4049;SDS011;2039;50.894;6.888;2022-11-21T08:09:44;71.22;;;10.45;;
4049;SDS011;2039;50.894;6.888;2022-11-21T08:12:10;74.05;;;9.50;;
4049;SDS011;2039;50.894;6.888;2022-11-21T08:14:37;71.22;;;9.27;;
4049;SDS011;2039;50.894;6.888;2022-11-21T08:17:03;71.60;;;10.33;;
4049;SDS011;2039;50.894;6.888;2022-11-21T08:19:30;71.38;;;8.60;;
4049;SDS011;2039;50.894;6.888;2022-11-21T08:21:55;72.30;;;9.93;;
4049;SDS011;2039;50.894;6.888;2022-11-21T08:24:21;68.67;;;10.10;;
4049;SDS011;2039;50.894;6.888;2022-11-21T08:26:47;70.90;;;10.60;;
4049;SDS011;2039;50.894;6.888;2022-11-21T08:29:13;72.57;;;9.47;;
4049;SDS011;2039;50.894;6.888;2022-11-21T08:31:41;71.95;;;9.57;;
4049;SDS011;2039;50.894;6.888;2022-11-21T08:34:08;82.05;;;9.80;;
4049;SDS011;2039;50.894;6.888;2022-11-21T08:36:34;72.20;;;9.55;;
4049;SDS011;2039;50.894;6.888;2022-11-21T08:39:00;71.90;;;9.70;;
4049;SDS011;2039;50.894;6.888;2022-11-21T08:41:27;73.05;;;10.75;;
4049;SDS011;2039;50.894;6.888;2022-11-21T08:44:11;70.13;;;9.90;;
4049;SDS011;2039;50.894;6.888;2022-11-21T08:46:37;71.83;;;9.10;;
4049;SDS011;2039;50.894;6.888;2022-11-21T08:49:03;71.28;;;9.00;;
4049;SDS011;2039;50.894;6.888;2022-11-21T08:51:29;72.18;;;11.23;;
4049;SDS011;2039;50.894;6.888;2022-11-21T08:53:55;69.57;;;9.80;;
4049;SDS011;2039;50.894;6.888;2022-11-21T08:56:21;81.03;;;14.30;;
4049;SDS011;2039;50.894;6.888;2022-11-21T08:58:46;71.40;;;10.43;;
4049;SDS011;2039;50.894;6.888;2022-11-21T09:01:12;69.57;;;9.97;;
4049;SDS011;2039;50.894;6.888;2022-11-21T09:03:38;73.07;;;11.57;;
4049;SDS011;2039;50.894;6.888;2022-11-21T09:06:04;76.67;;;12.80;;
4049;SDS011;2039;50.894;6.888;2022-11-21T09:08:30;72.77;;;13.27;;
4049;SDS011;2039;50.894;6.888;2022-11-21T09:10:55;74.33;;;11.87;;
4049;SDS011;2039;50.894;6.888;2022-11-21T09:13:21;70.27;;;9.80;;
4049;SDS011;2039;50.894;6.888;2022-11-21T09:15:47;76.93;;;11.88;;
4049;SDS011;2039;50.894;6.888;2022-11-21T09:18:31;74.72;;;13.13;;
4049;SDS011;2039;50.894;6.888;2022-11-21T09:20:57;74.33;;;12.50;;
4049;SDS011;2039;50.894;6.888;2022-11-21T09:23:23;76.07;;;11.63;;
4049;SDS011;2039;50.894;6.888;2022-11-21T09:25:49;75.63;;;11.50;;
4049;SDS011;2039;50.894;6.888;2022-11-21T09:28:15;72.70;;;11.20;;
4049;SDS011;2039;50.894;6.888;2022-11-21T09:30:41;71.60;;;11.47;;
4049;SDS011;2039;50.894;6.888;2022-11-21T09:33:11;79.63;;;10.80;;
4049;SDS011;2039;50.894;6.888;2022-11-21T09:35:38;76.82;;;10.80;;
4049;SDS011;2039;50.894;6.888;2022-11-21T09:38:04;70.55;;;9.80;;
4049;SDS011;2039;50.894;6.888;2022-11-21T09:40:33;72.95;;;11.00;;
4049;SDS011;2039;50.894;6.888;2022-11-21T09:48:14;71.95;;;10.82;;
4049;SDS011;2039;50.894;6.888;2022-11-21T09:50:49;72.40;;;9.00;;
4049;SDS011;2039;50.894;6.888;2022-11-21T09:53:21;70.47;;;8.30;;
4049;SDS011;2039;50.894;6.888;2022-11-21T09:55:58;71.53;;;7.65;;
4049;SDS011;2039;50.894;6.888;2022-11-21T09:58:44;70.25;;;9.18;;
4049;SDS011;2039;50.894;6.888;2022-11-21T10:01:13;83.07;;;8.48;;
4049;SDS011;2039;50.894;6.888;2022-11-21T10:03:47;69.95;;;9.32;;
4049;SDS011;2039;50.894;6.888;2022-11-21T10:14:35;69.47;;;7.30;;
4049;SDS011;2039;50.894;6.888;2022-11-21T10:17:09;71.60;;;7.13;;
4049;SDS011;2039;50.894;6.888;2022-11-21T10:22:34;68.97;;;7.18;;
4049;SDS011;2039;50.894;6.888;2022-11-21T10:25:14;67.03;;;6.25;;
4049;SDS011;2039;50.894;6.888;2022-11-21T10:27:51;69.10;;;7.35;;
4049;SDS011;2039;50.894;6.888;2022-11-21T10:30:21;70.25;;;6.32;;
4049;SDS011;2039;50.894;6.888;2022-11-21T10:32:52;69.93;;;7.18;;
4049;SDS011;2039;50.894;6.888;2022-11-21T10:35:24;72.13;;;6.45;;
4049;SDS011;2039;50.894;6.888;2022-11-21T10:38:13;67.88;;;6.28;;
4049;SDS011;2039;50.894;6.888;2022-11-21T10:43:58;67.03;;;7.10;;
4049;SDS011;2039;50.894;6.888;2022-11-21T10:46:58;67.57;;;6.20;;
4049;SDS011;2039;50.894;6.888;2022-11-21T10:49:26;66.13;;;5.03;;
4049;SDS011;2039;50.894;6.888;2022-11-21T10:52:08;68.78;;;5.18;;
4049;SDS011;2039;50.894;6.888;2022-11-21T10:57:32;66.75;;;4.50;;
4049;SDS011;2039;50.894;6.888;2022-11-21T11:02:36;66.00;;;4.75;;
4049;SDS011;2039;50.894;6.888;2022-11-21T11:07:57;69.68;;;4.10;;
4049;SDS011;2039;50.894;6.888;2022-11-21T11:10:25;65.85;;;4.10;;
4049;SDS011;2039;50.894;6.888;2022-11-21T11:12:51;68.97;;;3.93;;
4049;SDS011;2039;50.894;6.888;2022-11-21T11:15:35;68.22;;;4.05;;
4049;SDS011;2039;50.894;6.888;2022-11-21T11:18:04;65.50;;;4.35;;
4049;SDS011;2039;50.894;6.888;2022-11-21T11:20:40;69.60;;;4.60;;
4049;SDS011;2039;50.894;6.888;2022-11-21T11:23:16;65.35;;;4.53;;
4049;SDS011;2039;50.894;6.888;2022-11-21T11:25:49;64.95;;;4.22;;
4049;SDS011;2039;50.894;6.888;2022-11-21T11:28:16;65.65;;;3.88;;
4049;SDS011;2039;50.894;6.888;2022-11-21T11:30:43;66.57;;;4.10;;
4049;SDS011;2039;50.894;6.888;2022-11-21T11:38:38;70.85;;;4.05;;
4049;SDS011;2039;50.894;6.888;2022-11-21T11:44:55;68.40;;;3.97;;
4049;SDS011;2039;50.894;6.888;2022-11-21T11:47:48;67.57;;;4.85;;
4049;SDS011;2039;50.894;6.888;2022-11-21T11:50:21;67.25;;;3.88;;
4049;SDS011;2039;50.894;6.888;2022-11-21T11:55:53;70.10;;;3.60;;
4049;SDS011;2039;50.894;6.888;2022-11-21T11:58:22;67.32;;;3.72;;
4049;SDS011;2039;50.894;6.888;2022-11-21T12:01:11;65.75;;;3.70;;
4049;SDS011;2039;50.894;6.888;2022-11-21T12:03:58;66.32;;;3.72;;
4049;SDS011;2039;50.894;6.888;2022-11-21T12:17:42;66.53;;;4.47;;
4049;SDS011;2039;50.894;6.888;2022-11-21T12:20:29;66.07;;;3.70;;
4049;SDS011;2039;50.894;6.888;2022-11-21T12:23:01;70.10;;;4.32;;
4049;SDS011;2039;50.894;6.888;2022-11-21T12:25:31;64.78;;;3.78;;
4049;SDS011;2039;50.894;6.888;2022-11-21T12:28:04;66.85;;;3.30;;
4049;SDS011;2039;50.894;6.888;2022-11-21T12:30:45;71.25;;;4.35;;
4049;SDS011;2039;50.894;6.888;2022-11-21T12:33:28;67.03;;;4.05;;
4049;SDS011;2039;50.894;6.888;2022-11-21T12:36:16;69.63;;;4.47;;
4049;SDS011;2039;50.894;6.888;2022-11-21T12:56:27;65.55;;;3.55;;
4049;SDS011;2039;50.894;6.888;2022-11-21T12:59:04;65.40;;;3.30;;
4049;SDS011;2039;50.894;6.888;2022-11-21T13:04:29;67.90;;;3.40;;
4049;SDS011;2039;50.894;6.888;2022-11-21T13:07:02;67.72;;;4.18;;
4049;SDS011;2039;50.894;6.888;2022-11-21T13:09:30;65.78;;;3.80;;
4049;SDS011;2039;50.894;6.888;2022-11-21T13:12:05;66.50;;;4.13;;
4049;SDS011;2039;50.894;6.888;2022-11-21T13:14:52;66.55;;;4.38;;
4049;SDS011;2039;50.894;6.888;2022-11-21T13:17:39;66.43;;;4.10;;
4049;SDS011;2039;50.894;6.888;2022-11-21T13:20:39;67.38;;;3.67;;
4049;SDS011;2039;50.894;6.888;2022-11-21T13:26:00;66.20;;;3.55;;
4049;SDS011;2039;50.894;6.888;2022-11-21T13:28:29;68.77;;;3.40;;
4049;SDS011;2039;50.894;6.888;2022-11-21T13:30:57;66.65;;;3.80;;
4049;SDS011;2039;50.894;6.888;2022-11-21T13:36:10;64.38;;;3.17;;
4049;SDS011;2039;50.894;6.888;2022-11-21T13:46:56;68.13;;;3.95;;
4049;SDS011;2039;50.894;6.888;2022-11-21T13:49:23;71.20;;;3.65;;
4049;SDS011;2039;50.894;6.888;2022-11-21T13:51:57;67.38;;;4.32;;
4049;SDS011;2039;50.894;6.888;2022-11-21T13:55:00;66.25;;;3.45;;
4049;SDS011;2039;50.894;6.888;2022-11-21T14:11:58;64.50;;;3.65;;
4049;SDS011;2039;50.894;6.888;2022-11-21T14:14:34;66.93;;;4.35;;
4049;SDS011;2039;50.894;6.888;2022-11-21T14:19:50;70.97;;;4.18;;
4049;SDS011;2039;50.894;6.888;2022-11-21T14:22:35;68.80;;;4.03;;
4049;SDS011;2039;50.894;6.888;2022-11-21T14:25:09;66.45;;;4.35;;
4049;SDS011;2039;50.894;6.888;2022-11-21T14:27:44;65.15;;;3.83;;
4049;SDS011;2039;50.894;6.888;2022-11-21T14:30:34;71.28;;;4.63;;
4049;SDS011;2039;50.894;6.888;2022-11-21T14:35:47;67.35;;;3.97;;
4049;SDS011;2039;50.894;6.888;2022-11-21T14:38:21;68.00;;;4.60;;
4049;SDS011;2039;50.894;6.888;2022-11-21T14:40:47;69.63;;;4.40;;
4049;SDS011;2039;50.894;6.888;2022-11-21T14:43:20;67.45;;;3.85;;
4049;SDS011;2039;50.894;6.888;2022-11-21T14:45:54;68.10;;;3.78;;
4049;SDS011;2039;50.894;6.888;2022-11-21T14:48:26;70.70;;;4.60;;
4049;SDS011;2039;50.894;6.888;2022-11-21T14:50:54;71.32;;;4.45;;
4049;SDS011;2039;50.894;6.888;2022-11-21T14:53:24;67.35;;;4.30;;
4049;SDS011;2039;50.894;6.888;2022-11-21T14:55:51;66.60;;;3.63;;
4049;SDS011;2039;50.894;6.888;2022-11-21T14:58:17;66.50;;;3.63;;
4049;SDS011;2039;50.894;6.888;2022-11-21T15:01:03;70.25;;;4.80;;
4049;SDS011;2039;50.894;6.888;2022-11-21T15:03:53;67.28;;;4.60;;
4049;SDS011;2039;50.894;6.888;2022-11-21T15:06:20;68.45;;;4.22;;
4049;SDS011;2039;50.894;6.888;2022-11-21T15:08:47;68.70;;;4.28;;
4049;SDS011;2039;50.894;6.888;2022-11-21T15:11:13;69.17;;;5.57;;
4049;SDS011;2039;50.894;6.888;2022-11-21T15:13:42;69.00;;;4.43;;
4049;SDS011;2039;50.894;6.888;2022-11-21T15:16:10;72.63;;;5.20;;
4049;SDS011;2039;50.894;6.888;2022-11-21T15:18:38;74.90;;;4.70;;
4049;SDS011;2039;50.894;6.888;2022-11-21T15:21:06;71.90;;;5.32;;
4049;SDS011;2039;50.894;6.888;2022-11-21T15:23:35;68.65;;;4.68;;
4049;SDS011;2039;50.894;6.888;2022-11-21T15:26:04;73.50;;;5.07;;
4049;SDS011;2039;50.894;6.888;2022-11-21T15:28:30;71.53;;;4.80;;
4049;SDS011;2039;50.894;6.888;2022-11-21T15:36:20;69.72;;;4.80;;
4049;SDS011;2039;50.894;6.888;2022-11-21T15:38:50;68.03;;;4.97;;
4049;SDS011;2039;50.894;6.888;2022-11-21T15:46:37;65.50;;;4.97;;
4049;SDS011;2039;50.894;6.888;2022-11-21T15:49:07;68.90;;;5.20;;
4049;SDS011;2039;50.894;6.888;2022-11-21T15:51:43;70.55;;;4.90;;
4049;SDS011;2039;50.894;6.888;2022-11-21T15:54:11;68.43;;;5.65;;
4049;SDS011;2039;50.894;6.888;2022-11-21T15:56:41;69.05;;;4.72;;
4049;SDS011;2039;50.894;6.888;2022-11-21T15:59:07;72.00;;;4.70;;
4049;SDS011;2039;50.894;6.888;2022-11-21T16:01:34;68.88;;;5.50;;
4049;SDS011;2039;50.894;6.888;2022-11-21T16:04:01;70.35;;;5.60;;
4049;SDS011;2039;50.894;6.888;2022-11-21T16:06:28;66.90;;;5.30;;
4049;SDS011;2039;50.894;6.888;2022-11-21T16:08:58;65.95;;;4.50;;
4049;SDS011;2039;50.894;6.888;2022-11-21T16:11:30;68.68;;;4.80;;
4049;SDS011;2039;50.894;6.888;2022-11-21T16:13:58;74.88;;;4.57;;
4049;SDS011;2039;50.894;6.888;2022-11-21T16:16:27;67.85;;;5.85;;
4049;SDS011;2039;50.894;6.888;2022-11-21T16:18:55;67.35;;;5.00;;
4049;SDS011;2039;50.894;6.888;2022-11-21T16:21:21;70.95;;;6.55;;
4049;SDS011;2039;50.894;6.888;2022-11-21T16:23:47;65.78;;;4.93;;
4049;SDS011;2039;50.894;6.888;2022-11-21T16:26:13;71.17;;;5.93;;
4049;SDS011;2039;50.894;6.888;2022-11-21T16:28:39;77.72;;;6.78;;
4049;SDS011;2039;50.894;6.888;2022-11-21T16:31:27;69.72;;;6.00;;
4049;SDS011;2039;50.894;6.888;2022-11-21T16:33:52;68.60;;;6.15;;
4049;SDS011;2039;50.894;6.888;2022-11-21T16:36:19;67.43;;;5.85;;
4049;SDS011;2039;50.894;6.888;2022-11-21T16:38:47;71.07;;;5.72;;
4049;SDS011;2039;50.894;6.888;2022-11-21T16:41:14;69.97;;;5.40;;
4049;SDS011;2039;50.894;6.888;2022-11-21T16:43:52;73.13;;;6.22;;
4049;SDS011;2039;50.894;6.888;2022-11-21T16:46:19;72.80;;;6.15;;
4049;SDS011;2039;50.894;6.888;2022-11-21T16:48:46;72.55;;;10.40;;
4049;SDS011;2039;50.894;6.888;2022-11-21T16:51:14;70.47;;;11.50;;
4049;SDS011;2039;50.894;6.888;2022-11-21T16:53:46;70.43;;;9.45;;
4049;SDS011;2039;50.894;6.888;2022-11-21T16:56:13;72.88;;;11.77;;
4049;SDS011;2039;50.894;6.888;2022-11-21T16:58:40;73.57;;;11.93;;
4049;SDS011;2039;50.894;6.888;2022-11-21T17:01:16;69.80;;;13.52;;
4049;SDS011;2039;50.894;6.888;2022-11-21T17:03:44;69.72;;;11.38;;
4049;SDS011;2039;50.894;6.888;2022-11-21T17:06:12;72.85;;;12.00;;
4049;SDS011;2039;50.894;6.888;2022-11-21T17:08:39;71.30;;;9.80;;
4049;SDS011;2039;50.894;6.888;2022-11-21T17:11:18;81.97;;;10.70;;
4049;SDS011;2039;50.894;6.888;2022-11-21T17:13:48;72.35;;;11.60;;
4049;SDS011;2039;50.894;6.888;2022-11-21T17:16:15;69.47;;;9.52;;
4049;SDS011;2039;50.894;6.888;2022-11-21T17:18:42;71.65;;;10.70;;
4049;SDS011;2039;50.894;6.888;2022-11-21T17:21:09;74.57;;;11.52;;
4049;SDS011;2039;50.894;6.888;2022-11-21T17:23:37;71.40;;;11.00;;
4049;SDS011;2039;50.894;6.888;2022-11-21T17:26:08;74.90;;;10.27;;
4049;SDS011;2039;50.894;6.888;2022-11-21T17:28:35;69.13;;;9.50;;
4049;SDS011;2039;50.894;6.888;2022-11-21T17:31:08;70.70;;;9.00;;